sensor_id;sensor_type;location;lat;lon;timestamp;P1;durP1;ratioP1;P2;durP2;ratioP2
73337;SDS011;61575;49.908;35.556;2023-03-21T00:00:53;58.28;;;22.20;;
73337;SDS011;61575;49.908;35.556;2023-03-21T00:03:56;47.97;;;20.02;;
73337;SDS011;61575;49.908;35.556;2023-03-21T00:06:58;48.25;;;20.85;;
73337;SDS011;61575;49.908;35.556;2023-03-21T00:10:00;47.63;;;20.20;;
73337;SDS011;61575;49.908;35.556;2023-03-21T00:13:15;41.47;;;16.90;;
73337;SDS011;61575;49.908;35.556;2023-03-21T00:16:17;37.20;;;16.35;;
73337;SDS011;61575;49.908;35.556;2023-03-21T00:19:31;42.30;;;17.73;;
73337;SDS011;61575;49.908;35.556;2023-03-21T00:22:33;44.28;;;18.65;;
73337;SDS011;61575;49.908;35.556;2023-03-21T00:25:36;36.35;;;17.30;;
73337;SDS011;61575;49.908;35.556;2023-03-21T00:28:39;37.42;;;16.83;;
73337;SDS011;61575;49.908;35.556;2023-03-21T00:31:42;44.40;;;19.23;;
73337;SDS011;61575;49.908;35.556;2023-03-21T00:34:44;40.40;;;17.63;;
73337;SDS011;61575;49.908;35.556;2023-03-21T00:38:02;41.88;;;17.88;;
73337;SDS011;61575;49.908;35.556;2023-03-21T00:41:07;43.28;;;18.10;;
73337;SDS011;61575;49.908;35.556;2023-03-21T00:44:31;33.28;;;16.02;;
73337;SDS011;61575;49.908;35.556;2023-03-21T00:47:37;37.17;;;15.45;;
73337;SDS011;61575;49.908;35.556;2023-03-21T00:50:40;38.03;;;16.57;;
73337;SDS011;61575;49.908;35.556;2023-03-21T00:53:46;36.92;;;18.05;;
73337;SDS011;61575;49.908;35.556;2023-03-21T00:56:47;32.47;;;16.47;;
73337;SDS011;61575;49.908;35.556;2023-03-21T00:59:49;42.17;;;18.60;;
73337;SDS011;61575;49.908;35.556;2023-03-21T01:02:51;39.92;;;17.90;;
73337;SDS011;61575;49.908;35.556;2023-03-21T01:06:18;35.13;;;17.50;;
73337;SDS011;61575;49.908;35.556;2023-03-21T01:09:21;38.47;;;18.27;;
73337;SDS011;61575;49.908;35.556;2023-03-21T01:12:24;35.33;;;17.38;;
73337;SDS011;61575;49.908;35.556;2023-03-21T01:15:29;39.78;;;16.98;;
73337;SDS011;61575;49.908;35.556;2023-03-21T01:18:31;34.90;;;16.67;;
73337;SDS011;61575;49.908;35.556;2023-03-21T01:21:34;34.42;;;15.95;;
73337;SDS011;61575;49.908;35.556;2023-03-21T01:24:36;42.92;;;16.77;;
73337;SDS011;61575;49.908;35.556;2023-03-21T01:27:52;36.25;;;14.85;;
73337;SDS011;61575;49.908;35.556;2023-03-21T01:30:55;33.97;;;14.65;;
73337;SDS011;61575;49.908;35.556;2023-03-21T01:33:57;30.25;;;13.75;;
73337;SDS011;61575;49.908;35.556;2023-03-21T01:36:59;32.40;;;13.23;;
73337;SDS011;61575;49.908;35.556;2023-03-21T01:40:04;29.00;;;12.43;;
73337;SDS011;61575;49.908;35.556;2023-03-21T01:43:26;28.67;;;12.07;;
73337;SDS011;61575;49.908;35.556;2023-03-21T01:46:37;26.27;;;12.15;;
73337;SDS011;61575;49.908;35.556;2023-03-21T01:50:16;24.00;;;10.52;;
73337;SDS011;61575;49.908;35.556;2023-03-21T01:53:43;21.42;;;10.45;;
73337;SDS011;61575;49.908;35.556;2023-03-21T01:56:47;23.42;;;10.18;;
73337;SDS011;61575;49.908;35.556;2023-03-21T01:59:50;21.98;;;9.70;;
73337;SDS011;61575;49.908;35.556;2023-03-21T02:02:58;26.33;;;11.15;;
73337;SDS011;61575;49.908;35.556;2023-03-21T02:09:47;22.70;;;9.65;;
73337;SDS011;61575;49.908;35.556;2023-03-21T02:12:54;20.73;;;8.75;;
73337;SDS011;61575;49.908;35.556;2023-03-21T02:16:09;25.38;;;8.98;;
73337;SDS011;61575;49.908;35.556;2023-03-21T02:22:42;18.20;;;9.40;;
73337;SDS011;61575;49.908;35.556;2023-03-21T02:40:10;19.52;;;9.57;;
73337;SDS011;61575;49.908;35.556;2023-03-21T02:43:58;18.85;;;9.20;;
73337;SDS011;61575;49.908;35.556;2023-03-21T02:47:02;16.23;;;7.90;;
73337;SDS011;61575;49.908;35.556;2023-03-21T02:50:34;20.92;;;9.48;;
73337;SDS011;61575;49.908;35.556;2023-03-21T02:53:39;16.85;;;8.15;;
73337;SDS011;61575;49.908;35.556;2023-03-21T02:56:45;18.55;;;9.75;;
73337;SDS011;61575;49.908;35.556;2023-03-21T02:59:50;24.35;;;9.27;;
73337;SDS011;61575;49.908;35.556;2023-03-21T03:03:06;18.48;;;8.52;;
73337;SDS011;61575;49.908;35.556;2023-03-21T03:06:23;18.25;;;8.45;;
73337;SDS011;61575;49.908;35.556;2023-03-21T03:09:33;24.08;;;9.82;;
73337;SDS011;61575;49.908;35.556;2023-03-21T03:19:29;23.65;;;10.07;;
73337;SDS011;61575;49.908;35.556;2023-03-21T03:26:04;28.63;;;10.55;;
73337;SDS011;61575;49.908;35.556;2023-03-21T03:29:12;27.52;;;11.82;;
73337;SDS011;61575;49.908;35.556;2023-03-21T03:32:25;24.52;;;11.35;;
73337;SDS011;61575;49.908;35.556;2023-03-21T03:35:39;18.13;;;10.25;;
73337;SDS011;61575;49.908;35.556;2023-03-21T03:38:41;28.45;;;11.93;;
73337;SDS011;61575;49.908;35.556;2023-03-21T03:41:49;30.80;;;13.80;;
73337;SDS011;61575;49.908;35.556;2023-03-21T03:45:17;29.17;;;12.60;;
73337;SDS011;61575;49.908;35.556;2023-03-21T03:48:27;30.75;;;14.20;;
73337;SDS011;61575;49.908;35.556;2023-03-21T03:51:45;32.17;;;13.35;;
73337;SDS011;61575;49.908;35.556;2023-03-21T03:55:00;29.55;;;13.32;;
73337;SDS011;61575;49.908;35.556;2023-03-21T03:58:07;29.25;;;12.80;;
73337;SDS011;61575;49.908;35.556;2023-03-21T04:01:23;25.75;;;12.48;;
73337;SDS011;61575;49.908;35.556;2023-03-21T04:04:27;26.10;;;12.52;;
73337;SDS011;61575;49.908;35.556;2023-03-21T04:07:31;32.47;;;13.52;;
73337;SDS011;61575;49.908;35.556;2023-03-21T04:10:34;27.65;;;13.00;;
73337;SDS011;61575;49.908;35.556;2023-03-21T04:13:37;26.90;;;12.50;;
73337;SDS011;61575;49.908;35.556;2023-03-21T04:16:42;33.00;;;14.48;;
73337;SDS011;61575;49.908;35.556;2023-03-21T04:19:44;37.25;;;15.88;;
73337;SDS011;61575;49.908;35.556;2023-03-21T04:22:46;36.60;;;17.00;;
73337;SDS011;61575;49.908;35.556;2023-03-21T04:25:49;38.80;;;17.83;;
73337;SDS011;61575;49.908;35.556;2023-03-21T04:29:10;33.15;;;16.23;;
73337;SDS011;61575;49.908;35.556;2023-03-21T04:32:45;55.75;;;25.73;;
73337;SDS011;61575;49.908;35.556;2023-03-21T04:35:58;44.40;;;20.88;;
73337;SDS011;61575;49.908;35.556;2023-03-21T04:39:05;70.45;;;31.65;;
73337;SDS011;61575;49.908;35.556;2023-03-21T04:42:13;53.28;;;24.77;;
73337;SDS011;61575;49.908;35.556;2023-03-21T04:45:16;47.38;;;22.55;;
73337;SDS011;61575;49.908;35.556;2023-03-21T04:48:19;50.38;;;25.77;;
73337;SDS011;61575;49.908;35.556;2023-03-21T04:51:25;58.88;;;27.65;;
73337;SDS011;61575;49.908;35.556;2023-03-21T04:54:27;61.07;;;27.47;;
73337;SDS011;61575;49.908;35.556;2023-03-21T05:00:32;49.55;;;24.55;;
73337;SDS011;61575;49.908;35.556;2023-03-21T05:03:38;51.42;;;24.38;;
73337;SDS011;61575;49.908;35.556;2023-03-21T05:06:40;50.47;;;24.97;;
73337;SDS011;61575;49.908;35.556;2023-03-21T05:09:43;59.80;;;25.67;;
73337;SDS011;61575;49.908;35.556;2023-03-21T05:12:46;61.40;;;27.27;;
73337;SDS011;61575;49.908;35.556;2023-03-21T05:15:48;59.28;;;28.67;;
73337;SDS011;61575;49.908;35.556;2023-03-21T05:18:51;60.77;;;28.43;;
73337;SDS011;61575;49.908;35.556;2023-03-21T05:21:55;59.30;;;28.83;;
73337;SDS011;61575;49.908;35.556;2023-03-21T05:25:00;65.57;;;33.40;;
73337;SDS011;61575;49.908;35.556;2023-03-21T05:28:18;58.65;;;29.08;;
73337;SDS011;61575;49.908;35.556;2023-03-21T05:31:20;76.37;;;35.03;;
73337;SDS011;61575;49.908;35.556;2023-03-21T05:34:28;73.07;;;34.90;;
73337;SDS011;61575;49.908;35.556;2023-03-21T05:37:30;67.15;;;34.22;;
73337;SDS011;61575;49.908;35.556;2023-03-21T05:40:32;64.82;;;31.75;;
73337;SDS011;61575;49.908;35.556;2023-03-21T05:43:36;57.22;;;28.40;;
73337;SDS011;61575;49.908;35.556;2023-03-21T05:46:38;62.35;;;31.33;;
73337;SDS011;61575;49.908;35.556;2023-03-21T05:49:40;55.63;;;29.55;;
73337;SDS011;61575;49.908;35.556;2023-03-21T05:52:42;61.67;;;30.67;;
73337;SDS011;61575;49.908;35.556;2023-03-21T05:55:47;62.00;;;32.03;;
73337;SDS011;61575;49.908;35.556;2023-03-21T05:59:04;71.28;;;30.95;;
73337;SDS011;61575;49.908;35.556;2023-03-21T06:02:13;72.13;;;32.28;;
73337;SDS011;61575;49.908;35.556;2023-03-21T06:05:15;78.33;;;33.33;;
73337;SDS011;61575;49.908;35.556;2023-03-21T06:08:17;61.22;;;29.70;;
73337;SDS011;61575;49.908;35.556;2023-03-21T06:14:56;61.03;;;28.15;;
73337;SDS011;61575;49.908;35.556;2023-03-21T06:18:04;58.92;;;28.08;;
73337;SDS011;61575;49.908;35.556;2023-03-21T06:21:07;59.03;;;28.27;;
73337;SDS011;61575;49.908;35.556;2023-03-21T06:24:12;53.50;;;26.30;;
73337;SDS011;61575;49.908;35.556;2023-03-21T06:27:15;60.88;;;28.48;;
73337;SDS011;61575;49.908;35.556;2023-03-21T06:30:23;58.05;;;28.33;;
73337;SDS011;61575;49.908;35.556;2023-03-21T06:33:44;65.85;;;29.77;;
73337;SDS011;61575;49.908;35.556;2023-03-21T06:36:46;61.08;;;28.98;;
73337;SDS011;61575;49.908;35.556;2023-03-21T06:39:51;62.05;;;28.63;;
73337;SDS011;61575;49.908;35.556;2023-03-21T06:42:56;74.07;;;29.05;;
73337;SDS011;61575;49.908;35.556;2023-03-21T06:45:59;70.87;;;31.20;;
73337;SDS011;61575;49.908;35.556;2023-03-21T06:49:01;71.43;;;31.98;;
73337;SDS011;61575;49.908;35.556;2023-03-21T06:52:04;64.75;;;32.10;;
73337;SDS011;61575;49.908;35.556;2023-03-21T06:55:06;56.90;;;30.20;;
73337;SDS011;61575;49.908;35.556;2023-03-21T06:58:09;52.22;;;27.05;;
73337;SDS011;61575;49.908;35.556;2023-03-21T07:01:11;50.28;;;26.67;;
73337;SDS011;61575;49.908;35.556;2023-03-21T07:04:26;47.08;;;24.65;;
73337;SDS011;61575;49.908;35.556;2023-03-21T07:07:29;45.03;;;24.30;;
73337;SDS011;61575;49.908;35.556;2023-03-21T07:10:31;51.83;;;24.88;;
73337;SDS011;61575;49.908;35.556;2023-03-21T07:13:39;46.35;;;22.30;;
73337;SDS011;61575;49.908;35.556;2023-03-21T07:16:41;39.30;;;21.40;;
73337;SDS011;61575;49.908;35.556;2023-03-21T07:19:43;47.20;;;23.00;;
73337;SDS011;61575;49.908;35.556;2023-03-21T07:22:46;46.63;;;23.13;;
73337;SDS011;61575;49.908;35.556;2023-03-21T07:25:49;48.13;;;23.57;;
73337;SDS011;61575;49.908;35.556;2023-03-21T07:31:54;35.10;;;16.13;;
73337;SDS011;61575;49.908;35.556;2023-03-21T07:34:56;29.23;;;14.17;;
73337;SDS011;61575;49.908;35.556;2023-03-21T07:38:01;29.95;;;15.50;;
73337;SDS011;61575;49.908;35.556;2023-03-21T07:41:03;32.10;;;14.60;;
73337;SDS011;61575;49.908;35.556;2023-03-21T07:44:07;25.20;;;12.63;;
73337;SDS011;61575;49.908;35.556;2023-03-21T07:47:09;21.80;;;11.18;;
73337;SDS011;61575;49.908;35.556;2023-03-21T07:50:11;25.08;;;12.75;;
73337;SDS011;61575;49.908;35.556;2023-03-21T07:53:13;27.40;;;13.05;;
73337;SDS011;61575;49.908;35.556;2023-03-21T07:56:15;27.02;;;13.43;;
73337;SDS011;61575;49.908;35.556;2023-03-21T07:59:17;25.50;;;12.40;;
73337;SDS011;61575;49.908;35.556;2023-03-21T08:02:19;26.33;;;13.05;;
73337;SDS011;61575;49.908;35.556;2023-03-21T08:05:27;28.35;;;15.05;;
73337;SDS011;61575;49.908;35.556;2023-03-21T08:08:30;27.90;;;15.20;;
73337;SDS011;61575;49.908;35.556;2023-03-21T08:11:32;32.17;;;15.27;;
73337;SDS011;61575;49.908;35.556;2023-03-21T08:14:34;31.63;;;15.20;;
73337;SDS011;61575;49.908;35.556;2023-03-21T08:20:40;26.33;;;14.07;;
73337;SDS011;61575;49.908;35.556;2023-03-21T08:23:42;25.23;;;13.07;;
73337;SDS011;61575;49.908;35.556;2023-03-21T08:26:44;27.00;;;13.27;;
73337;SDS011;61575;49.908;35.556;2023-03-21T08:29:46;26.73;;;13.30;;
73337;SDS011;61575;49.908;35.556;2023-03-21T08:32:48;24.35;;;12.18;;
73337;SDS011;61575;49.908;35.556;2023-03-21T08:35:50;26.17;;;13.27;;
73337;SDS011;61575;49.908;35.556;2023-03-21T08:38:55;22.00;;;12.82;;
73337;SDS011;61575;49.908;35.556;2023-03-21T08:42:05;25.58;;;13.20;;
73337;SDS011;61575;49.908;35.556;2023-03-21T08:45:07;26.02;;;11.68;;
73337;SDS011;61575;49.908;35.556;2023-03-21T08:48:11;29.10;;;12.65;;
73337;SDS011;61575;49.908;35.556;2023-03-21T08:51:13;27.03;;;13.60;;
73337;SDS011;61575;49.908;35.556;2023-03-21T08:54:19;24.23;;;13.00;;
73337;SDS011;61575;49.908;35.556;2023-03-21T08:57:22;27.58;;;13.63;;
73337;SDS011;61575;49.908;35.556;2023-03-21T09:00:24;27.83;;;13.32;;
73337;SDS011;61575;49.908;35.556;2023-03-21T09:03:26;23.47;;;12.43;;
73337;SDS011;61575;49.908;35.556;2023-03-21T09:06:28;27.63;;;12.20;;
73337;SDS011;61575;49.908;35.556;2023-03-21T09:09:30;22.48;;;11.15;;
73337;SDS011;61575;49.908;35.556;2023-03-21T09:12:33;24.15;;;10.93;;
73337;SDS011;61575;49.908;35.556;2023-03-21T09:15:35;25.13;;;10.00;;
73337;SDS011;61575;49.908;35.556;2023-03-21T09:18:37;22.27;;;10.05;;
73337;SDS011;61575;49.908;35.556;2023-03-21T09:21:50;22.42;;;10.30;;
73337;SDS011;61575;49.908;35.556;2023-03-21T09:24:54;24.10;;;10.50;;
73337;SDS011;61575;49.908;35.556;2023-03-21T09:27:56;20.65;;;10.10;;
73337;SDS011;61575;49.908;35.556;2023-03-21T09:30:58;21.67;;;11.15;;
73337;SDS011;61575;49.908;35.556;2023-03-21T09:34:04;27.50;;;10.75;;
73337;SDS011;61575;49.908;35.556;2023-03-21T09:37:07;21.50;;;10.70;;
73337;SDS011;61575;49.908;35.556;2023-03-21T09:43:35;20.63;;;10.18;;
73337;SDS011;61575;49.908;35.556;2023-03-21T09:46:54;26.23;;;11.68;;
73337;SDS011;61575;49.908;35.556;2023-03-21T09:50:18;22.35;;;9.90;;
73337;SDS011;61575;49.908;35.556;2023-03-21T09:53:27;23.00;;;9.45;;
73337;SDS011;61575;49.908;35.556;2023-03-21T09:56:35;23.60;;;10.65;;
73337;SDS011;61575;49.908;35.556;2023-03-21T09:59:41;21.25;;;10.57;;
73337;SDS011;61575;49.908;35.556;2023-03-21T10:02:46;28.10;;;10.80;;
73337;SDS011;61575;49.908;35.556;2023-03-21T10:05:52;21.92;;;10.65;;
73337;SDS011;61575;49.908;35.556;2023-03-21T10:09:00;18.40;;;10.18;;
73337;SDS011;61575;49.908;35.556;2023-03-21T10:12:19;25.25;;;10.30;;
73337;SDS011;61575;49.908;35.556;2023-03-21T10:15:23;23.25;;;10.27;;
73337;SDS011;61575;49.908;35.556;2023-03-21T10:18:28;21.35;;;10.48;;
73337;SDS011;61575;49.908;35.556;2023-03-21T10:21:31;22.77;;;10.35;;
73337;SDS011;61575;49.908;35.556;2023-03-21T10:24:53;22.27;;;10.30;;
73337;SDS011;61575;49.908;35.556;2023-03-21T10:27:55;20.33;;;10.80;;
73337;SDS011;61575;49.908;35.556;2023-03-21T10:31:07;23.67;;;11.15;;
73337;SDS011;61575;49.908;35.556;2023-03-21T10:34:15;24.73;;;10.50;;
73337;SDS011;61575;49.908;35.556;2023-03-21T10:37:28;20.27;;;10.57;;
73337;SDS011;61575;49.908;35.556;2023-03-21T10:40:32;26.65;;;11.60;;
73337;SDS011;61575;49.908;35.556;2023-03-21T10:43:37;25.27;;;12.02;;
73337;SDS011;61575;49.908;35.556;2023-03-21T10:46:48;21.02;;;11.73;;
73337;SDS011;61575;49.908;35.556;2023-03-21T10:49:53;25.58;;;11.88;;
73337;SDS011;61575;49.908;35.556;2023-03-21T10:53:19;22.65;;;13.23;;
73337;SDS011;61575;49.908;35.556;2023-03-21T10:56:27;21.80;;;12.25;;
73337;SDS011;61575;49.908;35.556;2023-03-21T10:59:39;24.20;;;12.65;;
73337;SDS011;61575;49.908;35.556;2023-03-21T11:02:49;29.42;;;13.82;;
73337;SDS011;61575;49.908;35.556;2023-03-21T11:05:52;27.70;;;12.57;;
73337;SDS011;61575;49.908;35.556;2023-03-21T11:09:00;29.73;;;13.55;;
73337;SDS011;61575;49.908;35.556;2023-03-21T11:12:09;26.95;;;12.98;;
73337;SDS011;61575;49.908;35.556;2023-03-21T11:15:30;25.10;;;13.88;;
73337;SDS011;61575;49.908;35.556;2023-03-21T11:18:32;26.77;;;14.40;;
73337;SDS011;61575;49.908;35.556;2023-03-21T11:21:39;26.17;;;15.02;;
73337;SDS011;61575;49.908;35.556;2023-03-21T11:24:42;27.38;;;15.23;;
73337;SDS011;61575;49.908;35.556;2023-03-21T11:27:52;27.85;;;14.95;;
73337;SDS011;61575;49.908;35.556;2023-03-21T11:30:56;29.58;;;15.52;;
73337;SDS011;61575;49.908;35.556;2023-03-21T11:34:01;27.20;;;15.15;;
73337;SDS011;61575;49.908;35.556;2023-03-21T11:37:23;29.40;;;16.45;;
73337;SDS011;61575;49.908;35.556;2023-03-21T11:40:27;30.27;;;17.02;;
73337;SDS011;61575;49.908;35.556;2023-03-21T11:43:37;26.30;;;16.10;;
73337;SDS011;61575;49.908;35.556;2023-03-21T11:46:39;27.63;;;16.23;;
73337;SDS011;61575;49.908;35.556;2023-03-21T11:49:41;28.47;;;16.30;;
73337;SDS011;61575;49.908;35.556;2023-03-21T11:52:56;32.30;;;16.47;;
73337;SDS011;61575;49.908;35.556;2023-03-21T11:56:03;31.75;;;16.17;;
73337;SDS011;61575;49.908;35.556;2023-03-21T12:02:42;33.47;;;17.50;;
73337;SDS011;61575;49.908;35.556;2023-03-21T12:06:00;28.65;;;16.52;;
73337;SDS011;61575;49.908;35.556;2023-03-21T12:19:07;28.92;;;16.42;;
73337;SDS011;61575;49.908;35.556;2023-03-21T12:22:35;27.27;;;16.25;;
73337;SDS011;61575;49.908;35.556;2023-03-21T12:25:37;28.77;;;17.05;;
73337;SDS011;61575;49.908;35.556;2023-03-21T12:28:50;27.25;;;17.20;;
73337;SDS011;61575;49.908;35.556;2023-03-21T12:45:18;27.95;;;16.40;;
73337;SDS011;61575;49.908;35.556;2023-03-21T12:48:50;28.02;;;16.65;;
73337;SDS011;61575;49.908;35.556;2023-03-21T12:52:18;32.13;;;17.67;;
73337;SDS011;61575;49.908;35.556;2023-03-21T12:55:52;34.17;;;19.17;;
73337;SDS011;61575;49.908;35.556;2023-03-21T12:59:03;32.13;;;17.42;;
73337;SDS011;61575;49.908;35.556;2023-03-21T13:05:45;31.75;;;19.00;;
73337;SDS011;61575;49.908;35.556;2023-03-21T13:09:01;33.00;;;18.75;;
73337;SDS011;61575;49.908;35.556;2023-03-21T13:12:20;35.28;;;19.92;;
73337;SDS011;61575;49.908;35.556;2023-03-21T13:25:27;37.50;;;20.52;;
73337;SDS011;61575;49.908;35.556;2023-03-21T13:28:34;35.92;;;21.45;;
73337;SDS011;61575;49.908;35.556;2023-03-21T13:31:38;31.67;;;20.30;;
73337;SDS011;61575;49.908;35.556;2023-03-21T13:34:53;36.13;;;22.20;;
73337;SDS011;61575;49.908;35.556;2023-03-21T13:37:59;37.08;;;20.48;;
73337;SDS011;61575;49.908;35.556;2023-03-21T13:41:14;35.88;;;20.02;;
73337;SDS011;61575;49.908;35.556;2023-03-21T13:50:50;36.35;;;20.55;;
73337;SDS011;61575;49.908;35.556;2023-03-21T13:54:00;33.33;;;18.80;;
73337;SDS011;61575;49.908;35.556;2023-03-21T14:00:34;32.55;;;18.38;;
73337;SDS011;61575;49.908;35.556;2023-03-21T14:03:40;32.17;;;18.33;;
73337;SDS011;61575;49.908;35.556;2023-03-21T14:06:58;33.47;;;18.92;;
73337;SDS011;61575;49.908;35.556;2023-03-21T14:10:07;29.40;;;18.15;;
73337;SDS011;61575;49.908;35.556;2023-03-21T14:13:19;51.50;;;28.65;;
73337;SDS011;61575;49.908;35.556;2023-03-21T14:16:25;36.80;;;22.98;;
73337;SDS011;61575;49.908;35.556;2023-03-21T14:19:31;34.58;;;20.15;;
73337;SDS011;61575;49.908;35.556;2023-03-21T14:22:33;31.42;;;18.65;;
73337;SDS011;61575;49.908;35.556;2023-03-21T14:25:36;33.10;;;17.77;;
73337;SDS011;61575;49.908;35.556;2023-03-21T14:28:48;31.30;;;18.88;;
73337;SDS011;61575;49.908;35.556;2023-03-21T14:31:53;32.35;;;17.50;;
73337;SDS011;61575;49.908;35.556;2023-03-21T14:34:58;33.10;;;19.17;;
73337;SDS011;61575;49.908;35.556;2023-03-21T14:38:05;31.55;;;18.98;;
73337;SDS011;61575;49.908;35.556;2023-03-21T14:41:26;31.55;;;18.58;;
73337;SDS011;61575;49.908;35.556;2023-03-21T14:44:51;36.97;;;20.10;;
73337;SDS011;61575;49.908;35.556;2023-03-21T14:48:15;30.48;;;17.65;;
73337;SDS011;61575;49.908;35.556;2023-03-21T14:51:17;36.60;;;19.83;;
73337;SDS011;61575;49.908;35.556;2023-03-21T14:54:19;36.27;;;19.97;;
73337;SDS011;61575;49.908;35.556;2023-03-21T14:57:23;36.88;;;23.60;;
73337;SDS011;61575;49.908;35.556;2023-03-21T15:00:29;50.53;;;28.25;;
73337;SDS011;61575;49.908;35.556;2023-03-21T15:03:31;30.00;;;18.40;;
73337;SDS011;61575;49.908;35.556;2023-03-21T15:09:52;31.30;;;17.73;;
73337;SDS011;61575;49.908;35.556;2023-03-21T15:12:57;58.70;;;38.60;;
73337;SDS011;61575;49.908;35.556;2023-03-21T15:16:03;52.45;;;29.38;;
73337;SDS011;61575;49.908;35.556;2023-03-21T15:25:16;44.85;;;26.00;;
73337;SDS011;61575;49.908;35.556;2023-03-21T15:28:23;40.67;;;22.85;;
73337;SDS011;61575;49.908;35.556;2023-03-21T15:31:30;39.63;;;20.90;;
73337;SDS011;61575;49.908;35.556;2023-03-21T15:34:37;38.25;;;20.38;;
73337;SDS011;61575;49.908;35.556;2023-03-21T15:37:39;39.38;;;22.42;;
73337;SDS011;61575;49.908;35.556;2023-03-21T15:40:40;40.40;;;22.10;;
73337;SDS011;61575;49.908;35.556;2023-03-21T15:43:43;38.83;;;21.03;;
73337;SDS011;61575;49.908;35.556;2023-03-21T15:46:46;34.60;;;20.67;;
73337;SDS011;61575;49.908;35.556;2023-03-21T15:49:52;36.00;;;20.25;;
73337;SDS011;61575;49.908;35.556;2023-03-21T15:52:59;33.45;;;19.58;;
73337;SDS011;61575;49.908;35.556;2023-03-21T15:56:04;34.95;;;19.92;;
73337;SDS011;61575;49.908;35.556;2023-03-21T15:59:13;32.13;;;18.02;;
73337;SDS011;61575;49.908;35.556;2023-03-21T16:02:19;38.67;;;20.10;;
73337;SDS011;61575;49.908;35.556;2023-03-21T16:05:32;33.65;;;19.90;;
73337;SDS011;61575;49.908;35.556;2023-03-21T16:09:21;36.10;;;19.83;;
73337;SDS011;61575;49.908;35.556;2023-03-21T16:12:10;30.95;;;19.30;;
73337;SDS011;61575;49.908;35.556;2023-03-21T16:15:13;35.53;;;20.60;;
73337;SDS011;61575;49.908;35.556;2023-03-21T16:18:16;42.25;;;22.15;;
73337;SDS011;61575;49.908;35.556;2023-03-21T16:21:19;37.30;;;20.93;;
73337;SDS011;61575;49.908;35.556;2023-03-21T16:24:22;39.88;;;23.20;;
73337;SDS011;61575;49.908;35.556;2023-03-21T16:27:24;49.92;;;24.88;;
73337;SDS011;61575;49.908;35.556;2023-03-21T16:30:26;83.00;;;41.22;;
73337;SDS011;61575;49.908;35.556;2023-03-21T16:33:28;61.70;;;34.53;;
73337;SDS011;61575;49.908;35.556;2023-03-21T16:36:31;64.68;;;32.90;;
73337;SDS011;61575;49.908;35.556;2023-03-21T16:39:37;64.03;;;34.55;;
73337;SDS011;61575;49.908;35.556;2023-03-21T16:42:39;69.50;;;38.17;;
73337;SDS011;61575;49.908;35.556;2023-03-21T16:45:41;80.00;;;39.03;;
73337;SDS011;61575;49.908;35.556;2023-03-21T16:48:44;68.78;;;36.72;;
73337;SDS011;61575;49.908;35.556;2023-03-21T16:51:47;65.50;;;34.92;;
73337;SDS011;61575;49.908;35.556;2023-03-21T16:54:52;68.60;;;35.60;;
73337;SDS011;61575;49.908;35.556;2023-03-21T16:57:54;69.85;;;37.88;;
73337;SDS011;61575;49.908;35.556;2023-03-21T17:00:57;85.95;;;43.80;;
73337;SDS011;61575;49.908;35.556;2023-03-21T17:03:59;87.97;;;43.90;;
73337;SDS011;61575;49.908;35.556;2023-03-21T17:07:02;78.00;;;40.05;;
73337;SDS011;61575;49.908;35.556;2023-03-21T17:10:09;76.65;;;38.25;;
73337;SDS011;61575;49.908;35.556;2023-03-21T17:13:14;72.22;;;36.60;;
73337;SDS011;61575;49.908;35.556;2023-03-21T17:16:17;71.85;;;37.42;;
73337;SDS011;61575;49.908;35.556;2023-03-21T17:19:21;68.68;;;34.17;;
73337;SDS011;61575;49.908;35.556;2023-03-21T17:22:27;74.05;;;36.50;;
73337;SDS011;61575;49.908;35.556;2023-03-21T17:25:29;68.97;;;36.00;;
73337;SDS011;61575;49.908;35.556;2023-03-21T17:28:31;68.03;;;35.67;;
73337;SDS011;61575;49.908;35.556;2023-03-21T17:31:34;69.88;;;35.42;;
73337;SDS011;61575;49.908;35.556;2023-03-21T17:34:37;60.85;;;32.25;;
73337;SDS011;61575;49.908;35.556;2023-03-21T17:37:39;59.00;;;29.90;;
73337;SDS011;61575;49.908;35.556;2023-03-21T17:40:41;57.67;;;28.95;;
73337;SDS011;61575;49.908;35.556;2023-03-21T17:43:43;58.43;;;29.37;;
73337;SDS011;61575;49.908;35.556;2023-03-21T17:46:45;70.82;;;34.33;;
73337;SDS011;61575;49.908;35.556;2023-03-21T17:49:51;66.43;;;33.20;;
73337;SDS011;61575;49.908;35.556;2023-03-21T17:52:53;71.43;;;33.97;;
73337;SDS011;61575;49.908;35.556;2023-03-21T17:55:57;70.68;;;36.03;;
73337;SDS011;61575;49.908;35.556;2023-03-21T17:59:00;72.45;;;35.72;;
73337;SDS011;61575;49.908;35.556;2023-03-21T18:02:04;67.22;;;33.38;;
73337;SDS011;61575;49.908;35.556;2023-03-21T18:05:07;76.20;;;35.67;;
73337;SDS011;61575;49.908;35.556;2023-03-21T18:08:10;79.43;;;38.88;;
73337;SDS011;61575;49.908;35.556;2023-03-21T18:11:13;89.75;;;37.65;;
73337;SDS011;61575;49.908;35.556;2023-03-21T18:14:16;80.10;;;37.20;;
73337;SDS011;61575;49.908;35.556;2023-03-21T18:17:28;85.13;;;39.00;;
73337;SDS011;61575;49.908;35.556;2023-03-21T18:20:30;82.90;;;37.25;;
73337;SDS011;61575;49.908;35.556;2023-03-21T18:23:53;84.53;;;39.00;;
73337;SDS011;61575;49.908;35.556;2023-03-21T18:26:55;81.15;;;37.45;;
73337;SDS011;61575;49.908;35.556;2023-03-21T18:29:57;79.47;;;38.75;;
73337;SDS011;61575;49.908;35.556;2023-03-21T18:33:19;76.43;;;38.13;;
73337;SDS011;61575;49.908;35.556;2023-03-21T18:36:21;79.07;;;36.90;;
73337;SDS011;61575;49.908;35.556;2023-03-21T18:39:28;71.00;;;35.08;;
73337;SDS011;61575;49.908;35.556;2023-03-21T18:42:30;69.20;;;34.55;;
73337;SDS011;61575;49.908;35.556;2023-03-21T18:45:32;72.07;;;34.03;;
73337;SDS011;61575;49.908;35.556;2023-03-21T18:48:34;71.65;;;36.13;;
73337;SDS011;61575;49.908;35.556;2023-03-21T18:51:36;67.22;;;33.58;;
73337;SDS011;61575;49.908;35.556;2023-03-21T18:54:38;65.53;;;33.08;;
73337;SDS011;61575;49.908;35.556;2023-03-21T18:57:40;79.73;;;37.00;;
73337;SDS011;61575;49.908;35.556;2023-03-21T19:00:42;81.40;;;37.03;;
73337;SDS011;61575;49.908;35.556;2023-03-21T19:03:45;87.47;;;39.57;;
73337;SDS011;61575;49.908;35.556;2023-03-21T19:07:06;101.40;;;45.30;;
73337;SDS011;61575;49.908;35.556;2023-03-21T19:10:09;94.93;;;42.25;;
73337;SDS011;61575;49.908;35.556;2023-03-21T19:13:20;83.53;;;35.58;;
73337;SDS011;61575;49.908;35.556;2023-03-21T19:16:22;82.28;;;36.03;;
73337;SDS011;61575;49.908;35.556;2023-03-21T19:19:30;78.38;;;35.22;;
73337;SDS011;61575;49.908;35.556;2023-03-21T19:22:32;84.95;;;37.33;;
73337;SDS011;61575;49.908;35.556;2023-03-21T19:25:34;86.10;;;38.47;;
73337;SDS011;61575;49.908;35.556;2023-03-21T19:28:36;97.53;;;42.83;;
73337;SDS011;61575;49.908;35.556;2023-03-21T19:31:38;97.13;;;41.23;;
73337;SDS011;61575;49.908;35.556;2023-03-21T19:34:41;95.65;;;42.33;;
73337;SDS011;61575;49.908;35.556;2023-03-21T19:37:43;86.28;;;38.90;;
73337;SDS011;61575;49.908;35.556;2023-03-21T19:40:44;83.80;;;37.75;;
73337;SDS011;61575;49.908;35.556;2023-03-21T19:43:47;85.22;;;35.78;;